createdAt,value
2017-05-24T00:01:56.559Z,5.66
2017-05-24T00:04:24.800Z,5.50
2017-05-24T00:06:53.046Z,5.46
2017-05-24T00:09:21.259Z,5.86
2017-05-24T00:11:49.507Z,6.42
2017-05-24T00:14:16.976Z,5.78
2017-05-24T00:16:45.188Z,5.48
2017-05-24T00:19:13.427Z,5.72
2017-05-24T00:21:41.686Z,5.36
2017-05-24T00:24:09.919Z,5.04
2017-05-24T00:26:38.150Z,4.88
2017-05-24T00:29:06.373Z,5.68
2017-05-24T00:31:34.598Z,4.88
2017-05-24T00:34:02.860Z,5.18
2017-05-24T00:36:31.095Z,4.96
2017-05-24T00:38:59.311Z,4.84
2017-05-24T00:41:27.548Z,4.44
2017-05-24T00:43:55.790Z,5.08
2017-05-24T00:46:24.026Z,4.56
2017-05-24T00:48:52.271Z,4.52
2017-05-24T00:51:20.496Z,4.32
2017-05-24T00:53:48.704Z,4.36
2017-05-24T00:56:16.924Z,4.86
2017-05-24T00:58:45.140Z,5.06
2017-05-24T01:01:13.359Z,4.20
2017-05-24T01:03:41.590Z,4.26
2017-05-24T01:06:09.828Z,4.24
2017-05-24T01:08:38.072Z,3.60
2017-05-24T01:11:06.312Z,4.02
2017-05-24T01:13:34.536Z,3.68
2017-05-24T01:16:02.775Z,3.74
2017-05-24T01:18:31.006Z,4.26
2017-05-24T01:20:59.238Z,3.56
2017-05-24T01:23:27.478Z,3.24
2017-05-24T01:25:55.731Z,3.60
2017-05-24T01:28:23.943Z,3.30
2017-05-24T01:30:52.156Z,3.00
2017-05-24T01:33:20.390Z,2.68
2017-05-24T01:35:48.631Z,2.80
2017-05-24T01:38:16.881Z,2.80
2017-05-24T01:40:45.125Z,2.72
2017-05-24T01:43:13.354Z,2.34
2017-05-24T01:45:40.803Z,2.38
2017-05-24T01:48:09.024Z,2.28
2017-05-24T01:50:37.265Z,1.94
2017-05-24T01:53:05.506Z,1.50
2017-05-24T01:55:33.729Z,2.02
2017-05-24T01:58:01.974Z,2.14
2017-05-24T02:00:30.197Z,2.20
2017-05-24T02:02:58.451Z,2.02
2017-05-24T02:05:26.695Z,1.70
2017-05-24T02:07:54.931Z,1.90
2017-05-24T02:10:23.174Z,1.80
2017-05-24T02:12:51.415Z,2.12
2017-05-24T02:15:19.650Z,1.88
2017-05-24T02:17:47.876Z,1.40
2017-05-24T02:20:16.092Z,1.66
2017-05-24T02:22:44.308Z,1.98
2017-05-24T02:25:12.575Z,1.52
2017-05-24T02:27:40.807Z,1.64
2017-05-24T02:30:09.028Z,1.40
2017-05-24T02:32:37.262Z,1.84
2017-05-24T02:35:05.479Z,1.80
2017-05-24T02:37:33.704Z,1.70
2017-05-24T02:40:01.923Z,1.68
2017-05-24T02:42:30.158Z,1.30
2017-05-24T02:44:58.376Z,1.60
2017-05-24T02:47:26.611Z,1.70
2017-05-24T02:49:54.843Z,1.40
2017-05-24T02:52:23.091Z,2.12
2017-05-24T02:54:51.308Z,1.68
2017-05-24T02:57:19.536Z,1.96
2017-05-24T02:59:47.760Z,1.52
2017-05-24T03:02:15.991Z,1.58
2017-05-24T03:04:44.231Z,1.68
2017-05-24T03:07:12.447Z,2.26
2017-05-24T03:09:40.682Z,1.80
2017-05-24T03:12:08.914Z,2.34
2017-05-24T03:14:37.162Z,1.58
2017-05-24T03:17:05.375Z,1.50
2017-05-24T03:19:33.617Z,1.56
2017-05-24T03:22:01.843Z,2.14
2017-05-24T03:24:30.082Z,1.78
2017-05-24T03:26:58.303Z,1.98
2017-05-24T03:29:26.516Z,1.72
2017-05-24T03:31:54.743Z,1.58
2017-05-24T03:34:22.986Z,1.80
2017-05-24T03:36:51.216Z,1.60
2017-05-24T03:39:19.436Z,1.62
2017-05-24T03:41:47.678Z,2.10
2017-05-24T03:44:15.906Z,1.94
2017-05-24T03:46:44.162Z,2.20
2017-05-24T03:49:12.393Z,1.50
2017-05-24T03:51:40.623Z,1.94
2017-05-24T03:54:08.850Z,1.76
2017-05-24T03:56:37.090Z,1.94
2017-05-24T03:59:05.320Z,2.10
2017-05-24T04:01:33.548Z,2.34
2017-05-24T04:04:01.791Z,2.20
2017-05-24T04:06:30.025Z,2.18
2017-05-24T04:08:58.251Z,2.30
2017-05-24T04:11:26.487Z,2.28
2017-05-24T04:13:54.715Z,1.90
2017-05-24T04:16:22.942Z,1.70
2017-05-24T04:18:51.170Z,2.62
2017-05-24T04:21:19.411Z,2.32
2017-05-24T04:23:47.655Z,2.10
2017-05-24T04:26:18.355Z,2.52
2017-05-24T04:28:46.859Z,2.44
2017-05-24T04:31:15.451Z,2.44
2017-05-24T04:33:43.719Z,2.40
2017-05-24T04:36:11.947Z,2.46
2017-05-24T04:38:40.182Z,2.86
2017-05-24T04:41:08.446Z,2.46
2017-05-24T04:43:36.669Z,2.68
2017-05-24T04:46:04.888Z,2.48
2017-05-24T04:48:33.125Z,2.24
2017-05-24T04:51:01.354Z,2.08
2017-05-24T04:53:29.589Z,2.80
2017-05-24T04:55:57.818Z,2.72
2017-05-24T04:58:26.062Z,2.60
2017-05-24T05:00:54.292Z,2.66
2017-05-24T05:03:22.530Z,3.12
2017-05-24T05:05:50.749Z,2.52
2017-05-24T05:08:18.993Z,2.40
2017-05-24T05:10:47.221Z,2.98
2017-05-24T05:13:15.470Z,2.82
2017-05-24T05:15:43.706Z,2.62
2017-05-24T05:18:11.959Z,2.94
2017-05-24T05:20:40.199Z,2.22
2017-05-24T05:23:08.422Z,1.80
2017-05-24T05:25:36.659Z,2.30
2017-05-24T05:28:04.876Z,2.10
2017-05-24T05:30:33.128Z,2.38
2017-05-24T05:33:01.362Z,2.24
2017-05-24T05:35:29.576Z,2.18
2017-05-24T05:37:57.793Z,1.92
2017-05-24T05:40:26.038Z,2.28
2017-05-24T05:42:54.280Z,2.22
2017-05-24T05:45:22.521Z,2.10
2017-05-24T05:47:50.753Z,2.06
2017-05-24T05:50:18.972Z,1.70
2017-05-24T05:52:47.203Z,1.98
2017-05-24T05:55:15.446Z,2.02
2017-05-24T05:57:43.683Z,2.32
2017-05-24T06:00:11.926Z,2.12
2017-05-24T06:02:40.145Z,2.16
2017-05-24T06:05:08.392Z,2.00
2017-05-24T06:07:36.639Z,1.96
2017-05-24T06:10:04.851Z,2.06
2017-05-24T06:12:33.102Z,2.22
2017-05-24T06:15:01.315Z,2.02
2017-05-24T06:17:29.540Z,2.16
2017-05-24T06:19:57.775Z,1.88
2017-05-24T06:22:26.007Z,2.24
2017-05-24T06:24:54.254Z,2.04
2017-05-24T06:27:22.486Z,1.90
2017-05-24T06:29:50.730Z,1.62
2017-05-24T06:32:18.943Z,1.58
2017-05-24T06:34:46.438Z,1.38
2017-05-24T06:37:14.670Z,1.90
2017-05-24T06:39:42.927Z,1.74
2017-05-24T06:42:11.170Z,1.94
2017-05-24T06:44:39.387Z,1.64
2017-05-24T06:47:07.612Z,1.56
2017-05-24T06:49:35.835Z,1.92
2017-05-24T06:52:04.077Z,1.80
2017-05-24T06:54:31.546Z,2.18
2017-05-24T06:56:59.801Z,1.76
2017-05-24T06:59:28.030Z,2.22
2017-05-24T07:01:56.261Z,1.60
2017-05-24T07:04:24.476Z,1.44
2017-05-24T07:06:52.708Z,1.72
2017-05-24T07:09:20.943Z,1.74
2017-05-24T07:11:49.157Z,1.62
2017-05-24T07:14:17.391Z,1.98
2017-05-24T07:16:45.634Z,1.52
2017-05-24T07:19:13.877Z,2.10
2017-05-24T07:21:42.107Z,1.78
2017-05-24T07:24:10.332Z,1.64
2017-05-24T07:26:38.569Z,1.70
2017-05-24T07:29:06.797Z,1.56
2017-05-24T07:31:35.030Z,1.26
2017-05-24T07:34:03.272Z,1.72
2017-05-24T07:36:31.503Z,1.58
2017-05-24T07:38:59.730Z,1.30
2017-05-24T07:41:27.966Z,1.74
2017-05-24T07:43:56.198Z,1.44
2017-05-24T07:46:24.430Z,1.50
2017-05-24T07:48:52.663Z,1.60
2017-05-24T07:51:20.913Z,1.24
2017-05-24T07:53:49.146Z,1.50
2017-05-24T07:56:17.394Z,1.74
2017-05-24T07:58:45.631Z,1.36
2017-05-24T08:01:13.861Z,1.50
2017-05-24T08:03:42.081Z,0.94
2017-05-24T08:06:10.327Z,1.20
2017-05-24T08:08:38.558Z,1.32
2017-05-24T08:11:06.791Z,1.76
2017-05-24T08:13:35.015Z,1.00
2017-05-24T08:16:03.252Z,1.44
2017-05-24T08:18:31.499Z,1.74
2017-05-24T08:20:59.735Z,1.48
2017-05-24T08:23:27.952Z,1.34
2017-05-24T08:25:56.183Z,2.24
2017-05-24T08:28:24.409Z,1.54
2017-05-24T08:30:52.640Z,1.60
2017-05-24T08:33:20.877Z,1.76
2017-05-24T08:35:49.091Z,1.70
2017-05-24T08:38:17.341Z,1.74
2017-05-24T08:40:45.587Z,1.44
2017-05-24T08:43:13.821Z,1.58
2017-05-24T08:45:42.067Z,1.38
2017-05-24T08:48:10.312Z,1.48
2017-05-24T08:50:38.558Z,1.84
2017-05-24T08:53:06.780Z,1.62
2017-05-24T08:55:35.014Z,1.40
2017-05-24T08:58:03.251Z,1.96
2017-05-24T09:00:31.497Z,1.64
2017-05-24T09:02:59.727Z,1.80
2017-05-24T09:05:27.983Z,1.64
2017-05-24T09:07:56.195Z,1.80
2017-05-24T09:10:24.427Z,1.50
2017-05-24T09:12:52.655Z,1.74
2017-05-24T09:15:20.899Z,1.48
2017-05-24T09:17:49.141Z,1.90
2017-05-24T09:20:17.361Z,1.36
2017-05-24T09:22:45.608Z,1.72
2017-05-24T09:25:13.847Z,1.56
2017-05-24T09:27:42.091Z,1.28
2017-05-24T09:30:10.330Z,1.64
2017-05-24T09:32:38.591Z,1.70
2017-05-24T09:35:06.819Z,1.42
2017-05-24T09:37:35.070Z,1.50
2017-05-24T09:40:03.307Z,2.98
2017-05-24T09:42:31.526Z,1.58
2017-05-24T09:44:59.775Z,1.90
2017-05-24T09:47:28.002Z,1.80
2017-05-24T09:49:56.242Z,1.80
2017-05-24T09:52:24.485Z,2.14
2017-05-24T09:54:52.718Z,1.50
2017-05-24T09:57:20.939Z,1.78
2017-05-24T09:59:49.180Z,1.78
2017-05-24T10:02:17.421Z,1.82
2017-05-24T10:04:45.674Z,2.24
2017-05-24T10:07:13.914Z,1.70
2017-05-24T10:09:42.136Z,1.96
2017-05-24T10:12:10.384Z,2.26
2017-05-24T10:14:38.608Z,2.02
2017-05-24T10:17:06.841Z,1.84
2017-05-24T10:19:35.067Z,2.00
2017-05-24T10:22:03.310Z,2.08
2017-05-24T10:24:31.536Z,1.92
2017-05-24T10:26:59.770Z,1.80
2017-05-24T10:29:27.989Z,2.20
2017-05-24T10:31:56.228Z,2.38
2017-05-24T10:34:24.467Z,2.20
2017-05-24T10:36:52.966Z,2.64
2017-05-24T10:39:21.199Z,1.74
2017-05-24T10:41:55.205Z,2.98
2017-05-24T10:44:23.438Z,2.44
2017-05-24T10:46:51.694Z,2.20
2017-05-24T10:49:19.931Z,2.88
2017-05-24T10:51:48.158Z,2.70
2017-05-24T10:54:16.402Z,2.50
2017-05-24T10:56:44.636Z,2.72
2017-05-24T10:59:12.926Z,3.08
2017-05-24T11:01:41.166Z,2.94
2017-05-24T11:04:09.402Z,2.66
2017-05-24T11:06:37.633Z,2.56
2017-05-24T11:09:05.860Z,2.58
2017-05-24T11:11:34.077Z,2.36
2017-05-24T11:14:02.316Z,2.86
2017-05-24T11:16:30.557Z,2.44
2017-05-24T11:18:58.804Z,2.70
2017-05-24T11:21:27.024Z,2.90
2017-05-24T11:23:55.267Z,3.24
2017-05-24T11:26:23.489Z,2.76
2017-05-24T11:28:51.725Z,2.88
2017-05-24T11:31:19.200Z,2.94
2017-05-24T11:33:47.415Z,3.10
2017-05-24T11:36:15.642Z,3.34
2017-05-24T11:38:43.876Z,2.40
2017-05-24T11:41:12.114Z,3.50
2017-05-24T11:43:40.331Z,3.40
2017-05-24T11:46:08.552Z,4.00
2017-05-24T11:48:36.793Z,4.06
2017-05-24T11:51:05.012Z,3.18
2017-05-24T11:53:33.246Z,3.42
2017-05-24T11:56:01.487Z,4.10
2017-05-24T11:58:29.762Z,3.60
2017-05-24T12:00:57.999Z,3.44
2017-05-24T12:03:26.231Z,3.78
2017-05-24T12:05:54.458Z,3.52
2017-05-24T12:08:22.693Z,3.26
2017-05-24T12:10:50.928Z,3.68
2017-05-24T12:13:19.170Z,3.52
2017-05-24T12:15:47.388Z,3.82
2017-05-24T12:18:15.634Z,3.66
2017-05-24T12:20:43.883Z,3.24
2017-05-24T12:23:12.490Z,3.70
2017-05-24T12:25:40.716Z,3.82
2017-05-24T12:28:08.963Z,3.92
2017-05-24T12:30:37.194Z,3.76
2017-05-24T12:33:05.464Z,3.12
2017-05-24T12:35:33.676Z,3.56
2017-05-24T12:38:01.921Z,3.48
2017-05-24T12:40:30.166Z,4.26
2017-05-24T12:42:58.400Z,3.36
2017-05-24T12:45:26.636Z,4.12
2017-05-24T12:47:54.853Z,3.80
2017-05-24T12:50:23.084Z,3.48
2017-05-24T12:52:51.309Z,3.86
2017-05-24T12:55:19.531Z,3.46
2017-05-24T12:57:47.744Z,3.10
2017-05-24T13:00:15.980Z,3.52
2017-05-24T13:02:44.233Z,3.38
2017-05-24T13:05:12.448Z,3.12
2017-05-24T13:07:40.679Z,3.38
2017-05-24T13:10:08.901Z,3.10
2017-05-24T13:12:37.133Z,3.40
2017-05-24T13:15:05.348Z,3.26
2017-05-24T13:17:33.584Z,3.22
2017-05-24T13:20:01.796Z,3.38
2017-05-24T13:22:30.028Z,3.34
2017-05-24T13:24:58.249Z,3.70
2017-05-24T13:27:26.488Z,3.50
2017-05-24T13:29:54.704Z,3.08
2017-05-24T13:32:22.964Z,3.64
2017-05-24T13:34:51.180Z,3.40
2017-05-24T13:37:19.399Z,3.18
2017-05-24T13:39:47.621Z,3.80
2017-05-24T13:42:15.836Z,3.54
2017-05-24T13:44:44.052Z,3.40
2017-05-24T13:47:12.271Z,3.32
2017-05-24T13:49:40.500Z,3.00
2017-05-24T13:52:08.719Z,3.58
2017-05-24T13:54:36.947Z,3.40
2017-05-24T13:57:05.162Z,3.28
2017-05-24T13:59:33.389Z,3.26
2017-05-24T14:02:01.613Z,3.52
2017-05-24T14:04:29.836Z,3.72
2017-05-24T14:06:58.060Z,3.66
2017-05-24T14:09:26.287Z,3.50
2017-05-24T14:11:54.511Z,3.60
2017-05-24T14:14:22.756Z,2.92
2017-05-24T14:16:50.984Z,3.68
2017-05-24T14:19:19.213Z,3.30
2017-05-24T14:21:47.444Z,3.76
2017-05-24T14:24:15.659Z,3.40
2017-05-24T14:26:43.891Z,3.04
2017-05-24T14:29:12.109Z,3.42
2017-05-24T14:31:40.344Z,3.74
2017-05-24T14:34:08.556Z,3.36
2017-05-24T14:36:36.791Z,3.08
2017-05-24T14:39:05.021Z,3.32
2017-05-24T14:41:33.259Z,2.84
2017-05-24T14:44:01.484Z,3.12
2017-05-24T14:46:29.707Z,3.44
2017-05-24T14:48:57.937Z,3.94
2017-05-24T14:51:26.155Z,3.04
2017-05-24T14:53:54.386Z,3.44
2017-05-24T14:56:22.610Z,3.62
2017-05-24T14:58:50.844Z,3.56
2017-05-24T15:01:19.071Z,3.60
2017-05-24T15:03:47.308Z,3.36
2017-05-24T15:06:15.527Z,3.36
2017-05-24T15:08:43.772Z,3.14
2017-05-24T15:11:11.995Z,3.20
2017-05-24T15:13:41.930Z,3.18
2017-05-24T15:16:10.219Z,3.26
2017-05-24T15:18:38.432Z,3.50
2017-05-24T15:21:06.667Z,3.82
2017-05-24T15:23:34.887Z,3.26
2017-05-24T15:26:03.121Z,3.48
2017-05-24T15:28:31.334Z,3.20
2017-05-24T15:30:59.564Z,4.08
2017-05-24T15:33:27.785Z,3.26
2017-05-24T15:35:56.025Z,3.54
2017-05-24T15:38:24.256Z,3.28
2017-05-24T15:40:52.496Z,3.34
2017-05-24T15:43:20.718Z,3.04
2017-05-24T15:45:48.928Z,4.12
2017-05-24T15:48:17.155Z,3.18
2017-05-24T15:50:45.378Z,3.56
2017-05-24T15:53:13.613Z,3.70
2017-05-24T15:55:41.831Z,3.40
2017-05-24T15:58:10.056Z,3.30
2017-05-24T16:00:38.271Z,3.32
2017-05-24T16:03:06.511Z,2.70
2017-05-24T16:05:34.724Z,3.00
2017-05-24T16:08:02.955Z,3.12
2017-05-24T16:10:31.176Z,3.40
2017-05-24T16:12:59.429Z,3.32
2017-05-24T16:15:27.645Z,3.68
2017-05-24T16:17:55.877Z,3.42
2017-05-24T16:20:24.091Z,3.36
2017-05-24T16:22:52.311Z,4.08
2017-05-24T16:25:20.530Z,3.60
2017-05-24T16:27:48.760Z,4.08
2017-05-24T16:30:16.994Z,3.46
2017-05-24T16:32:45.209Z,3.12
2017-05-24T16:35:13.437Z,4.20
2017-05-24T16:37:41.660Z,4.18
2017-05-24T16:40:09.894Z,3.64
2017-05-24T16:42:38.103Z,3.84
2017-05-24T16:45:06.325Z,4.00
2017-05-24T16:47:34.557Z,3.70
2017-05-24T16:50:02.778Z,4.00
2017-05-24T16:52:31.000Z,3.92
2017-05-24T16:54:59.223Z,3.70
2017-05-24T16:57:27.447Z,3.70
2017-05-24T16:59:55.669Z,4.02
2017-05-24T17:02:23.924Z,4.04
2017-05-24T17:04:52.146Z,3.24
2017-05-24T17:07:20.367Z,3.62
2017-05-24T17:09:48.592Z,3.72
2017-05-24T17:12:16.816Z,4.18
2017-05-24T17:14:45.044Z,4.12
2017-05-24T17:17:13.268Z,3.58
2017-05-24T17:19:41.494Z,4.44
2017-05-24T17:22:09.744Z,4.40
2017-05-24T17:24:37.995Z,4.18
2017-05-24T17:27:06.244Z,4.70
2017-05-24T17:29:34.480Z,4.60
2017-05-24T17:32:02.699Z,4.30
2017-05-24T17:34:30.926Z,4.58
2017-05-24T17:36:59.156Z,3.98
2017-05-24T17:39:27.380Z,3.80
2017-05-24T17:41:55.603Z,4.26
2017-05-24T17:44:23.853Z,4.22
2017-05-24T17:46:52.095Z,4.30
2017-05-24T17:49:20.324Z,3.74
2017-05-24T17:51:48.547Z,4.94
2017-05-24T17:54:16.764Z,4.24
2017-05-24T17:56:44.983Z,4.42
2017-05-24T17:59:13.224Z,4.38
2017-05-24T18:01:41.449Z,4.10
2017-05-24T18:04:09.675Z,4.22
2017-05-24T18:06:37.897Z,4.72
2017-05-24T18:09:06.127Z,4.46
2017-05-24T18:11:34.344Z,4.40
2017-05-24T18:14:02.594Z,4.40
2017-05-24T18:16:30.811Z,4.62
2017-05-24T18:18:59.044Z,4.30
2017-05-24T18:21:27.440Z,4.72
2017-05-24T18:23:55.665Z,4.08
2017-05-24T18:26:23.879Z,4.58
2017-05-24T18:28:52.092Z,4.50
2017-05-24T18:31:20.332Z,4.70
2017-05-24T18:33:48.560Z,4.60
2017-05-24T18:36:16.782Z,4.80
2017-05-24T18:38:44.999Z,4.80
2017-05-24T18:41:13.224Z,4.96
2017-05-24T18:43:41.439Z,4.24
2017-05-24T18:46:09.676Z,4.48
2017-05-24T18:48:37.891Z,4.92
2017-05-24T18:51:06.106Z,4.62
2017-05-24T18:53:34.331Z,5.08
2017-05-24T18:56:02.547Z,4.72
2017-05-24T18:58:30.770Z,5.02
2017-05-24T19:00:58.995Z,4.52
2017-05-24T19:03:27.229Z,5.60
2017-05-24T19:05:55.453Z,5.66
2017-05-24T19:08:23.843Z,5.38
2017-05-24T19:10:52.067Z,4.52
2017-05-24T19:13:20.527Z,5.30
2017-05-24T19:15:48.739Z,5.40
2017-05-24T19:18:16.955Z,5.10
2017-05-24T19:20:45.190Z,5.50
2017-05-24T19:23:13.411Z,4.78
2017-05-24T19:25:41.638Z,5.20
2017-05-24T19:28:09.856Z,5.24
2017-05-24T19:30:40.891Z,5.20
2017-05-24T19:33:09.885Z,5.10
2017-05-24T19:35:38.369Z,5.06
2017-05-24T19:38:06.596Z,5.74
2017-05-24T19:40:35.169Z,6.56
2017-05-24T19:43:05.344Z,6.60
2017-05-24T19:45:33.570Z,6.36
2017-05-24T19:48:01.811Z,6.50
2017-05-24T19:50:30.048Z,6.86
2017-05-24T19:52:58.290Z,6.40
2017-05-24T19:55:26.515Z,6.50
2017-05-24T19:57:54.741Z,6.14
2017-05-24T20:00:23.000Z,6.24
2017-05-24T20:02:51.230Z,6.54
2017-05-24T20:05:19.452Z,6.26
2017-05-24T20:07:47.680Z,7.28
2017-05-24T20:10:15.900Z,6.06
2017-05-24T20:12:44.137Z,6.30
2017-05-24T20:15:12.363Z,6.24
2017-05-24T20:17:40.609Z,7.50
2017-05-24T20:20:08.835Z,6.40
2017-05-24T20:22:37.047Z,7.24
2017-05-24T20:25:05.285Z,6.50
2017-05-24T20:27:33.503Z,6.18
2017-05-24T20:30:01.733Z,6.88
2017-05-24T20:32:29.952Z,6.10
2017-05-24T20:34:58.180Z,6.08
2017-05-24T20:37:26.407Z,6.60
2017-05-24T20:39:54.636Z,6.66
2017-05-24T20:42:22.856Z,6.62
2017-05-24T20:44:51.088Z,6.50
2017-05-24T20:47:19.320Z,6.24
2017-05-24T20:49:47.572Z,7.00
2017-05-24T20:52:15.791Z,7.26
2017-05-24T20:54:44.015Z,6.76
2017-05-24T20:57:12.252Z,6.28
2017-05-24T20:59:40.471Z,6.88
2017-05-24T21:02:08.694Z,7.04
2017-05-24T21:04:36.919Z,7.04
2017-05-24T21:07:05.133Z,7.00
2017-05-24T21:09:33.355Z,6.60
2017-05-24T21:12:02.085Z,5.84
2017-05-24T21:14:30.299Z,5.76
2017-05-24T21:16:58.540Z,6.00
2017-05-24T21:19:26.758Z,5.90
2017-05-24T21:21:55.011Z,6.00
2017-05-24T21:24:23.725Z,5.40
2017-05-24T21:26:51.952Z,5.84
2017-05-24T21:29:20.186Z,6.04
2017-05-24T21:31:48.401Z,5.12
2017-05-24T21:34:16.633Z,5.62
2017-05-24T21:36:44.853Z,5.80
2017-05-24T21:39:13.073Z,6.22
2017-05-24T21:41:41.305Z,5.66
2017-05-24T21:44:09.536Z,6.62
2017-05-24T21:46:37.764Z,5.88
2017-05-24T21:49:05.983Z,6.40
2017-05-24T21:51:34.204Z,5.52
2017-05-24T21:54:02.448Z,6.06
2017-05-24T21:56:30.668Z,6.70
2017-05-24T21:58:58.891Z,6.40
2017-05-24T22:01:27.115Z,5.80
2017-05-24T22:03:55.343Z,5.52
2017-05-24T22:06:23.569Z,5.64
2017-05-24T22:08:51.789Z,5.68
2017-05-24T22:11:20.011Z,5.64
2017-05-24T22:13:48.232Z,5.78
2017-05-24T22:16:16.460Z,6.26
2017-05-24T22:18:44.684Z,6.82
2017-05-24T22:21:12.911Z,7.10
2017-05-24T22:23:41.132Z,6.38
2017-05-24T22:26:09.388Z,6.50
2017-05-24T22:28:37.603Z,6.38
2017-05-24T22:31:05.835Z,5.86
2017-05-24T22:33:34.055Z,5.42
2017-05-24T22:36:02.284Z,5.90
2017-05-24T22:38:30.518Z,5.76
2017-05-24T22:40:58.743Z,5.34
2017-05-24T22:43:26.970Z,5.90
2017-05-24T22:45:55.193Z,5.74
2017-05-24T22:48:23.431Z,6.40
2017-05-24T22:50:51.651Z,6.80
2017-05-24T22:53:19.876Z,6.96
2017-05-24T22:55:48.096Z,5.62
2017-05-24T22:58:16.319Z,5.94
2017-05-24T23:00:44.540Z,5.90
2017-05-24T23:03:12.753Z,5.50
2017-05-24T23:05:41.008Z,5.84
2017-05-24T23:08:09.228Z,5.76
2017-05-24T23:10:37.456Z,5.90
2017-05-24T23:13:05.675Z,6.06
2017-05-24T23:15:33.906Z,6.06
2017-05-24T23:18:02.149Z,6.26
2017-05-24T23:20:30.376Z,6.88
2017-05-24T23:22:58.603Z,6.34
2017-05-24T23:25:26.829Z,6.42
2017-05-24T23:27:55.044Z,5.72
2017-05-24T23:30:23.295Z,5.92
2017-05-24T23:32:51.523Z,5.78
2017-05-24T23:35:19.739Z,6.40
2017-05-24T23:37:47.967Z,6.40
2017-05-24T23:40:16.179Z,6.38
2017-05-24T23:42:44.416Z,6.04
2017-05-24T23:45:12.628Z,6.40
2017-05-24T23:47:40.853Z,5.80
2017-05-24T23:50:09.065Z,5.56
2017-05-24T23:52:37.323Z,6.20
2017-05-24T23:55:05.546Z,6.82
2017-05-24T23:57:33.771Z,6.70
